METAR Data
IDs: Format: Raw Decoded Include TAF

Data at: 2057 UTC 18 Sep 2018

K3T5 182035Z AUTO 00000KT 10SM BKN047 33/23 A2991 RMK AO2 T03300231
K3T5 182015Z AUTO 12005KT 10SM SCT044 BKN050 33/23 A2992 RMK AO2 T03260231
K3T5 181955Z AUTO 18004KT 10SM CLR 33/23 A2992 RMK AO2 T03290234
K3T5 181935Z AUTO 00000KT 10SM CLR 33/24 A2993 RMK AO2 T03280235
K3T5 181915Z AUTO 16005KT 10SM SCT042 SCT050 33/24 A2994 RMK AO2 T03340239
K3T5 181855Z AUTO 13004KT 10SM SCT038 SCT050 32/23 A2995 RMK AO2 T03240234
K3T5 181835Z AUTO 16006KT 10SM BKN038 BKN046 32/24 A2996 RMK AO2 T03220241
K3T5 181815Z AUTO 00000KT 10SM SCT039 SCT045 32/24 A2996 RMK AO2 T03160239
K3T5 181755Z AUTO 17003KT 10SM SCT039 32/24 A2998 RMK AO2 T03160241 10320 20235
K3T5 181735Z AUTO 24005KT 10SM SCT037 SCT042 31/24 A2998 RMK AO2 T03120242
K3T5 181715Z AUTO 00000KT 10SM SCT034 32/24 A2999 RMK AO2 T03170242
K3T5 181655Z AUTO 19003KT 10SM CLR 31/24 A3000 RMK AO2 T03110243
K3T5 181635Z AUTO 00000KT 10SM CLR 31/24 A3001 RMK AO2 T03060244
K3T5 181615Z AUTO 24003KT 10SM CLR 31/25 A3001 RMK AO2 T03050247
K3T5 181555Z AUTO 21003KT 10SM CLR 30/25 A3001 RMK AO2 T02980249
K3T5 181535Z AUTO 25004KT 10SM CLR 29/26 A3001 RMK AO2 T02930255
K3T5 181515Z AUTO 00000KT 10SM CLR 29/25 A3001 RMK AO2 T02850254
K3T5 181455Z AUTO 22003KT 7SM CLR 28/26 A3001 RMK AO2 T02770258
K3T5 181435Z AUTO 00000KT 7SM SCT007 27/26 A3001 RMK AO2 T02690259
K3T5 181415Z AUTO 00000KT 5SM BR SCT005 26/26 A3000 RMK AO2 T02600259
K3T5 181355Z AUTO 27003KT 5SM BR OVC003 26/26 A3000 RMK AO2 T02550255
K3T5 181335Z AUTO 00000KT 2 1/2SM BR OVC003 25/25 A3000 RMK AO2 T02520252
K3T5 181255Z AUTO 00000KT 10SM OVC005 24/24 A3000 RMK AO2 T02440244
K3T5 181235Z AUTO 00000KT 10SM OVC007 24/24 A2999 RMK AO2 T02380238
K3T5 181215Z AUTO 00000KT 10SM BKN007 24/24 A2999 RMK AO2 T02350235
K3T5 181155Z AUTO 00000KT 10SM SCT007 24/24 A2999 RMK AO2 T02350235 10264 20235
K3T5 181135Z AUTO 00000KT 10SM CLR 24/24 A2998 RMK AO2 T02390239
K3T5 181115Z AUTO 00000KT 10SM CLR 24/24 A2998 RMK AO2 T02400240
K3T5 181055Z AUTO 00000KT 10SM CLR 24/24 A2997 RMK AO2 T02410241
K3T5 181035Z AUTO 00000KT 10SM CLR 24/24 A2997 RMK AO2 T02400240
K3T5 181015Z AUTO 00000KT 10SM CLR 24/24 A2996 RMK AO2 T02400240
K3T5 180955Z AUTO 00000KT 10SM CLR 24/24 A2996 RMK AO2 T02410241
K3T5 180935Z AUTO 00000KT 10SM CLR 24/24 A2996 RMK AO2 T02420242
K3T5 180915Z AUTO 00000KT 7SM CLR 25/25 A2996 RMK AO2 T02450245
K3T5 180855Z AUTO 00000KT 10SM CLR 25/24 A2996 RMK AO2 T02450244
K3T5 180835Z AUTO 00000KT 10SM CLR 25/25 A2996 RMK AO2 T02450245
K3T5 180815Z AUTO 00000KT 10SM CLR 24/24 A2996 RMK AO2 T02400240
K3T5 180755Z AUTO 00000KT 10SM CLR 24/24 A2996 RMK AO2 LTG DSNT W T02410239
K3T5 180735Z AUTO 00000KT 10SM CLR 25/24 A2996 RMK AO2 T02460242
K3T5 180715Z AUTO 00000KT 10SM CLR 25/24 A2996 RMK AO2 T02470242
K3T5 180655Z AUTO 00000KT 10SM CLR 25/24 A2996 RMK AO2 T02490239
K3T5 180615Z AUTO 22003KT 10SM CLR 26/24 A2996 RMK AO2 T02600237
K3T5 180555Z AUTO 21004KT 10SM CLR 26/24 A2997 RMK AO2 T02640236 10320 20264 403380219
K3T5 180535Z AUTO 22005KT 10SM CLR 27/24 A2997 RMK AO2 T02660236
K3T5 180515Z AUTO 22004KT 10SM CLR 27/24 A2997 RMK AO2 T02700237
K3T5 180455Z AUTO 22004KT 10SM CLR 27/24 A2997 RMK AO2 T02720237
K3T5 180435Z AUTO 22003KT 10SM CLR 27/24 A2997 RMK AO2 T02740238
K3T5 180415Z AUTO 20003KT 10SM CLR 27/24 A2997 RMK AO2 LTG DSNT SW T02720239
K3T5 180355Z AUTO 20003KT 10SM CLR 28/24 A2997 RMK AO2 T02750239
K3T5 180335Z AUTO 21003KT 10SM CLR 28/24 A2996 RMK AO2 T02760237
K3T5 180315Z AUTO 00000KT 10SM CLR 28/24 A2996 RMK AO2 T02780236
K3T5 180255Z AUTO 00000KT 10SM CLR 28/24 A2995 RMK AO2 T02790236
K3T5 180235Z AUTO 21003KT 10SM CLR 28/23 A2994 RMK AO2 T02840232
K3T5 180215Z AUTO 21003KT 10SM CLR 28/23 A2994 RMK AO2 T02820231
K3T5 180155Z AUTO 00000KT 10SM CLR 28/24 A2993 RMK AO2 T02800235
K3T5 180135Z AUTO 00000KT 10SM CLR 28/23 A2992 RMK AO2 T02840233
K3T5 180115Z AUTO 00000KT 10SM CLR 28/24 A2992 RMK AO2 T02840240
K3T5 180055Z AUTO 00000KT 10SM CLR 29/24 A2992 RMK AO2 T02940239
K3T5 180035Z AUTO 00000KT 10SM CLR 30/24 A2991 RMK AO2 T03000243
K3T5 180015Z AUTO 00000KT 10SM CLR 31/24 A2991 RMK AO2 T03070241
K3T5 172355Z AUTO 00000KT 10SM CLR 32/24 A2991 RMK AO2 T03200236 10338 20298
K3T5 172335Z AUTO 00000KT 10SM CLR 33/23 A2991 RMK AO2 T03250233
K3T5 172315Z AUTO 00000KT 10SM SCT055 33/23 A2991 RMK AO2 T03310225
K3T5 172255Z AUTO 00000KT 10SM CLR 33/23 A2991 RMK AO2 T03320225
K3T5 172235Z AUTO 00000KT 10SM CLR 34/21 A2990 RMK AO2 T03370214
K3T5 172215Z AUTO 00000KT 10SM CLR 33/22 A2991 RMK AO2 LTG DSNT SW T03330220
K3T5 172155Z AUTO 00000KT 10SM SCT049 34/22 A2991 RMK AO2 T03350220
K3T5 172135Z AUTO 25003KT 10SM SCT049 33/22 A2991 RMK AO2 T03320221
K3T5 172115Z AUTO 00000KT 10SM CLR 33/22 A2992 RMK AO2 T03320222
K3T5 172055Z AUTO 00000KT 10SM CLR 33/23 A2992 RMK AO2 T03280226
K3T5 172035Z AUTO 00000KT 10SM CLR 33/23 A2993 RMK AO2 T03280227
K3T5 172015Z AUTO 00000KT 10SM CLR 33/23 A2993 RMK AO2 T03260225
K3T5 171955Z AUTO 00000KT 10SM SCT038 32/24 A2994 RMK AO2 T03230236
K3T5 171935Z AUTO 00000KT 10SM SCT036 32/23 A2995 RMK AO2 T03200232
K3T5 171915Z AUTO 00000KT 10SM CLR 32/24 A2996 RMK AO2 T03160236
K3T5 171855Z AUTO 30003KT 10SM SCT034 32/24 A2997 RMK AO2 T03190239
K3T5 171835Z AUTO 00000KT 10SM CLR 31/24 A2998 RMK AO2 T03110236
K3T5 171815Z AUTO 00000KT 10SM CLR 31/24 A2998 RMK AO2 T03050236
K3T5 171755Z AUTO 00000KT 10SM CLR 30/23 A2999 RMK AO2 T02970232 10301 20219
K3T5 171735Z AUTO 27004KT 10SM CLR 30/23 A2999 RMK AO2 T03000232
K3T5 171715Z AUTO 21003KT 10SM CLR 30/23 A3000 RMK AO2 T02980232
K3T5 171655Z AUTO 00000KT 10SM CLR 29/23 A3000 RMK AO2 T02940228
K3T5 171635Z AUTO 23004KT 10SM CLR 29/24 A3000 RMK AO2 T02940235
K3T5 171615Z AUTO 27004KT 10SM CLR 29/23 A3001 RMK AO2 T02910234
K3T5 171555Z AUTO 24004KT 10SM CLR 29/24 A3001 RMK AO2 T02880235
K3T5 171535Z AUTO 00000KT 10SM CLR 28/23 A3000 RMK AO2 T02840234
K3T5 171515Z AUTO 00000KT 10SM CLR 28/23 A3000 RMK AO2 T02770233
K3T5 171455Z AUTO 00000KT 10SM CLR 27/24 A2999 RMK AO2 T02730239
K3T5 171435Z AUTO 00000KT 10SM CLR 26/24 A2999 RMK AO2 T02610240
K3T5 171415Z AUTO 00000KT 10SM CLR 25/24 A2999 RMK AO2 T02480242
K3T5 171355Z AUTO 00000KT 10SM CLR 24/24 A2999 RMK AO2 T02390239
K3T5 171335Z AUTO 00000KT 10SM CLR 23/23 A2999 RMK AO2 T02280228
K3T5 171315Z AUTO 00000KT 10SM SCT002 23/23 A2999 RMK AO2 T02250225
K3T5 171255Z AUTO 00000KT 4SM BR BKN002 22/22 A2998 RMK AO2 T02210221
K3T5 171235Z AUTO 00000KT 7SM SCT002 22/22 A2997 RMK AO2 T02190219
K3T5 171215Z AUTO 00000KT 10SM CLR 22/22 A2996 RMK AO2 T02200220
K3T5 171155Z AUTO 00000KT 10SM CLR 22/22 A2996 RMK AO2 T02200220 10236 20220
K3T5 171135Z AUTO 00000KT 10SM CLR 22/22 A2996 RMK AO2 T02200220
K3T5 171115Z AUTO 00000KT 10SM CLR 22/22 A2995 RMK AO2 T02220222
K3T5 171055Z AUTO 00000KT 10SM CLR 22/22 A2995 RMK AO2 T02220222
K3T5 171035Z AUTO 00000KT 10SM CLR 22/22 A2994 RMK AO2 T02230223
K3T5 171015Z AUTO 00000KT 10SM CLR 22/22 A2994 RMK AO2 T02220222
K3T5 170955Z AUTO 00000KT 10SM CLR 22/22 A2993 RMK AO2 T02220222
K3T5 170935Z AUTO 00000KT 10SM CLR 22/22 A2993 RMK AO2 T02230223
K3T5 170915Z AUTO 00000KT 10SM CLR 22/22 A2993 RMK AO2 T02220222